»·PEaware :: JBU292 KRNO-KLGB

JBU292 :: KRNO-KLGB

FLIGHT INFORMATION

Flight Status: Arrived
Operator:
JetBlue Airways
More flights by this operator :: More flights under this callsign
Pilot: Skye D. (10623)
Aircraft: AIRBUS A320
(A320)
More flights by this aircraft type
Origin: KRNO Reno/Tahoe Intl
United States
Destination: KLGB Long Beach
United States
More flights between these airports :: More routes between these airports
Route: +ZEFFR6 DARBI FRA J7 REBRG PCIFC1
File this flight plan on PilotEdge
Remarks:
Altitude:
(Current/Filed)
39,000ft
Speed:
(Current/Filed)
445kts
Departed: 11-Feb-18 10:37 AM
Arrived: 11-Feb-18 11:43 AM
Distance/Time
Traveled:
350nm/1:06
Distance/Time
To Go:
Arrived

Flight Plot

Page will automatically refresh every two minutes.

Flight plan parsing failed; only flown route is shown


Map Options




Map Legend


Flown Route
Filed Route
Departure Airport
Arrival Airport
Navaid (VOR, NDB)
Fix

Horizontal Profiles

Position Reports

Time Latitude Longitude Heading Altitude Ground
Speed
11-Feb-18 10:23 39.505234 -119.773654 180 4423ft 0kts
11-Feb-18 10:24 39.505234 -119.773654 180 4423ft 0kts
11-Feb-18 10:25 39.505234 -119.773654 180 4423ft 0kts
11-Feb-18 10:26 39.505234 -119.773654 180 4423ft 0kts
11-Feb-18 10:27 39.505234 -119.773654 180 4423ft 0kts
11-Feb-18 10:28 39.505234 -119.773654 180 4423ft 0kts
11-Feb-18 10:29 39.505234 -119.773654 180 4423ft 0kts
11-Feb-18 10:30 39.505234 -119.773654 180 4423ft 0kts
11-Feb-18 10:31 39.505234 -119.773654 180 4423ft 0kts
11-Feb-18 10:32 39.505234 -119.773654 180 4423ft 0kts
11-Feb-18 10:33 39.505234 -119.773654 180 4423ft 0kts
11-Feb-18 10:34 39.505234 -119.773654 180 4423ft 0kts
11-Feb-18 10:35 39.505234 -119.773654 180 4423ft 0kts
11-Feb-18 10:36 39.505498 -119.773683 184 4423ft 2kts
11-Feb-18 10:37 39.505898 -119.773763 118 4423ft 1kts
11-Feb-18 10:38 39.505907 -119.772665 90 4423ft 2kts
11-Feb-18 10:39 39.505907 -119.772609 90 4423ft 0kts
11-Feb-18 10:40 39.505903 -119.772162 90 4423ft 9kts
11-Feb-18 10:41 39.508266 -119.771570 356 4423ft 24kts
11-Feb-18 10:42 39.513426 -119.771513 12 4423ft 10kts
11-Feb-18 10:43 39.513955 -119.770457 113 4423ft 1kts
11-Feb-18 10:44 39.511381 -119.769185 179 4423ft 55kts
11-Feb-18 10:45 39.482305 -119.768990 180 5741ft 141kts
11-Feb-18 10:46 39.432033 -119.769006 186 7388ft 218kts
11-Feb-18 10:47 39.366783 -119.769697 187 9809ft 265kts
11-Feb-18 10:48 39.292520 -119.768885 183 11806ft 317kts
11-Feb-18 10:49 39.194668 -119.765173 184 14149ft 366kts
11-Feb-18 10:50 39.090448 -119.761251 185 17008ft 387kts
11-Feb-18 10:51 38.982763 -119.757196 185 19320ft 403kts
11-Feb-18 10:52 38.870888 -119.752990 185 21254ft 419kts
11-Feb-18 10:53 38.753616 -119.748594 185 23329ft 430kts
11-Feb-18 10:54 38.631579 -119.744052 184 25103ft 451kts
11-Feb-18 10:55 38.503575 -119.739296 184 26887ft 468kts
11-Feb-18 10:56 38.372430 -119.734441 184 28409ft 483kts
11-Feb-18 10:57 38.237565 -119.724555 180 29713ft 499kts
11-Feb-18 10:58 38.098168 -119.708537 180 30844ft 510kts
11-Feb-18 10:59 37.957725 -119.692388 180 31933ft 518kts
11-Feb-18 11:00 37.817426 -119.676141 180 33696ft 504kts
11-Feb-18 11:01 37.682169 -119.660894 180 35057ft 496kts
11-Feb-18 11:02 37.547928 -119.645628 181 36148ft 492kts
11-Feb-18 11:03 37.413052 -119.630356 181 37118ft 491kts
11-Feb-18 11:04 37.279039 -119.615235 181 38071ft 491kts
11-Feb-18 11:05 37.146030 -119.600283 181 38965ft 491kts
11-Feb-18 11:06 37.011939 -119.597291 187 39067ft 484kts
11-Feb-18 11:07 36.881337 -119.599541 187 39054ft 484kts
11-Feb-18 11:08 36.751712 -119.601751 187 39057ft 484kts
11-Feb-18 11:09 36.621978 -119.603974 187 39057ft 484kts
11-Feb-18 11:10 36.488060 -119.606266 187 39066ft 484kts
11-Feb-18 11:11 36.354169 -119.608567 187 39066ft 484kts
11-Feb-18 11:12 36.220477 -119.610865 187 39067ft 483kts
11-Feb-18 11:13 36.087717 -119.613142 187 39067ft 483kts
11-Feb-18 11:14 35.956053 -119.620411 197 39071ft 474kts
11-Feb-18 11:15 35.836637 -119.644479 196 39039ft 474kts
11-Feb-18 11:16 35.709283 -119.670300 197 39038ft 474kts
11-Feb-18 11:17 35.582113 -119.637826 161 39040ft 506kts
11-Feb-18 11:18 35.455604 -119.569108 160 39039ft 507kts
11-Feb-18 11:19 35.328913 -119.499686 160 39020ft 507kts
11-Feb-18 11:20 35.205107 -119.432029 160 39025ft 497kts
11-Feb-18 11:21 35.079343 -119.363605 160 39036ft 500kts
11-Feb-18 11:22 34.959730 -119.297729 161 38019ft 499kts
11-Feb-18 11:23 34.837692 -119.230917 160 36577ft 497kts
11-Feb-18 11:24 34.714805 -119.162282 155 35075ft 500kts
11-Feb-18 11:25 34.595064 -119.085895 155 33425ft 499kts
11-Feb-18 11:26 34.475874 -119.009034 154 30504ft 496kts
11-Feb-18 11:27 34.361431 -118.933562 152 27765ft 472kts
11-Feb-18 11:28 34.252686 -118.861507 152 25155ft 440kts
11-Feb-18 11:29 34.145222 -118.812880 162 22767ft 425kts
11-Feb-18 11:30 34.036121 -118.769984 163 20360ft 408kts
11-Feb-18 11:31 33.938850 -118.732340 162 18245ft 392kts
11-Feb-18 11:32 33.837398 -118.693225 161 15995ft 389kts
11-Feb-18 11:33 33.747935 -118.658796 161 13995ft 370kts
11-Feb-18 11:34 33.657988 -118.626998 162 12102ft 339kts
11-Feb-18 11:35 33.582409 -118.575221 121 10424ft 319kts
11-Feb-18 11:36 33.536210 -118.492738 121 9267ft 287kts
11-Feb-18 11:37 33.520567 -118.403580 91 7999ft 277kts
11-Feb-18 11:38 33.523508 -118.317554 67 6851ft 270kts
11-Feb-18 11:39 33.549121 -118.236456 68 5728ft 264kts
11-Feb-18 11:40 33.573680 -118.157873 68 4004ft 262kts
11-Feb-18 11:41 33.594861 -118.088812 68 3437ft 212kts
11-Feb-18 11:42 33.617847 -118.037929 17 2992ft 186kts
11-Feb-18 11:43 33.663068 -118.026021 11 2982ft 188kts
11-Feb-18 11:44 33.704239 -118.027333 319 2110ft 183kts
11-Feb-18 11:45 33.736718 -118.055171 317 1980ft 159kts
11-Feb-18 11:46 33.761169 -118.083128 313 1472ft 134kts
11-Feb-18 11:47 33.783065 -118.109586 313 875ft 132kts
11-Feb-18 11:48 33.802657 -118.133216 314 337ft 131kts
11-Feb-18 11:49 33.819187 -118.153039 315 68ft 43kts
11-Feb-18 11:50 33.821633 -118.154360 89 68ft 0kts
11-Feb-18 11:51 33.821655 -118.153567 86 68ft 17kts
11-Feb-18 11:52 33.821612 -118.147482 92 68ft 8kts
11-Feb-18 11:53 33.818987 -118.146113 91 68ft 5kts
11-Feb-18 11:54 33.818986 -118.146022 90 68ft 0kts

Navigation Log

Ident Type
Flight plan parsing failed, navigation log unavailable